createdAt,value
2022-12-16T00:00:17.320Z,6.30
2022-12-16T00:02:45.687Z,6.63
2022-12-16T00:05:13.971Z,7.50
2022-12-16T00:07:42.290Z,6.90
2022-12-16T00:10:11.991Z,5.93
2022-12-16T00:12:40.257Z,5.90
2022-12-16T00:15:08.996Z,6.10
2022-12-16T00:17:37.656Z,6.57
2022-12-16T00:20:06.971Z,6.70
2022-12-16T00:22:35.215Z,6.60
2022-12-16T00:25:03.603Z,6.30
2022-12-16T00:27:33.349Z,6.60
2022-12-16T00:30:02.306Z,7.23
2022-12-16T00:32:30.671Z,6.83
2022-12-16T00:34:59.081Z,6.50
2022-12-16T00:37:28.381Z,7.00
2022-12-16T00:39:56.699Z,6.83
2022-12-16T00:42:25.064Z,6.93
2022-12-16T00:44:54.718Z,6.73
2022-12-16T00:47:23.053Z,6.43
2022-12-16T00:49:51.252Z,8.53
2022-12-16T00:52:19.474Z,6.70
2022-12-16T00:54:47.739Z,7.90
2022-12-16T00:57:16.055Z,6.67
2022-12-16T00:59:44.313Z,7.57
2022-12-16T01:02:14.051Z,7.70
2022-12-16T01:04:42.373Z,8.53
2022-12-16T01:07:11.217Z,7.43
2022-12-16T01:09:39.427Z,7.17
2022-12-16T01:12:08.308Z,8.33
2022-12-16T01:14:36.763Z,7.20
2022-12-16T01:17:05.120Z,7.67
2022-12-16T01:19:34.761Z,8.73
2022-12-16T01:22:03.063Z,8.40
2022-12-16T01:24:31.310Z,8.83
2022-12-16T01:26:59.629Z,8.07
2022-12-16T01:29:27.838Z,6.73
2022-12-16T01:31:56.226Z,6.47
2022-12-16T01:34:25.143Z,5.60
2022-12-16T01:36:55.949Z,7.70
2022-12-16T01:39:25.201Z,5.83
2022-12-16T01:41:53.406Z,5.33
2022-12-16T01:44:24.559Z,4.60
2022-12-16T01:46:57.350Z,3.33
2022-12-16T01:49:29.164Z,4.37
2022-12-16T01:52:03.359Z,3.47
2022-12-16T01:57:27.367Z,3.10
2022-12-16T01:59:57.490Z,3.53
2022-12-16T02:02:27.379Z,3.80
2022-12-16T02:05:14.272Z,3.13
2022-12-16T02:07:44.448Z,2.87
2022-12-16T02:16:06.399Z,2.40
2022-12-16T02:18:46.718Z,2.70
2022-12-16T02:21:28.132Z,2.40
2022-12-16T02:24:41.437Z,2.23
2022-12-16T02:30:51.721Z,2.47
2022-12-16T02:33:42.468Z,2.23
2022-12-16T02:36:19.237Z,5.90
2022-12-16T02:38:56.563Z,8.47
2022-12-16T02:41:31.127Z,4.77
2022-12-16T02:46:56.194Z,9.67
2022-12-16T02:49:50.690Z,14.83
2022-12-16T02:52:22.952Z,9.97
2022-12-16T02:54:55.068Z,11.90
2022-12-16T02:57:43.752Z,8.50
2022-12-16T03:00:14.620Z,8.47
2022-12-16T03:02:50.926Z,8.87
2022-12-16T03:05:25.256Z,6.87
2022-12-16T03:07:57.125Z,6.53
2022-12-16T03:10:30.612Z,4.47
2022-12-16T03:13:02.906Z,4.60
2022-12-16T03:15:35.296Z,4.37
2022-12-16T03:20:57.191Z,3.67
2022-12-16T03:23:32.787Z,4.23
2022-12-16T03:26:07.590Z,4.60
2022-12-16T03:28:44.815Z,4.20
2022-12-16T03:31:24.952Z,4.33
2022-12-16T03:36:51.256Z,3.53
2022-12-16T03:39:23.265Z,4.00
2022-12-16T03:41:55.190Z,3.90
2022-12-16T03:44:25.660Z,3.90
2022-12-16T03:46:54.061Z,3.60
2022-12-16T03:49:24.402Z,3.67
2022-12-16T03:54:40.241Z,3.10
2022-12-16T03:57:14.773Z,3.70
2022-12-16T03:59:43.985Z,3.60
2022-12-16T04:02:12.339Z,3.33
2022-12-16T04:04:42.182Z,3.07
2022-12-16T04:07:22.366Z,3.47
2022-12-16T04:09:53.072Z,3.00
2022-12-16T04:12:39.338Z,3.17
2022-12-16T04:15:26.233Z,2.97
2022-12-16T04:18:12.092Z,2.27
2022-12-16T04:21:03.195Z,2.70
2022-12-16T04:23:52.364Z,2.73
2022-12-16T04:26:27.008Z,2.20
2022-12-16T04:28:55.286Z,1.93
2022-12-16T04:31:23.526Z,2.43
2022-12-16T04:34:09.471Z,1.97
2022-12-16T04:36:56.408Z,2.00
2022-12-16T04:39:41.874Z,2.20
2022-12-16T04:45:31.436Z,2.10
2022-12-16T04:48:17.334Z,3.10
2022-12-16T04:51:06.376Z,2.77
2022-12-16T04:53:53.461Z,2.67
2022-12-16T04:56:38.993Z,2.53
2022-12-16T05:02:36.313Z,3.20
2022-12-16T05:05:22.293Z,3.00
2022-12-16T05:08:07.835Z,2.50
2022-12-16T05:10:54.944Z,2.23
2022-12-16T05:13:40.771Z,2.10
2022-12-16T05:16:26.754Z,2.10
2022-12-16T05:19:12.539Z,2.07
2022-12-16T05:21:57.981Z,2.17
2022-12-16T05:24:46.222Z,2.30
2022-12-16T05:27:35.672Z,3.37
2022-12-16T05:30:21.322Z,3.53
2022-12-16T05:33:07.931Z,4.10
2022-12-16T05:35:54.163Z,3.30
2022-12-16T05:38:39.682Z,2.73
2022-12-16T05:41:25.094Z,2.83
2022-12-16T05:44:12.318Z,3.13
2022-12-16T05:46:57.871Z,2.73
2022-12-16T05:49:43.927Z,2.50
2022-12-16T05:52:29.562Z,2.63
2022-12-16T05:55:15.417Z,2.70
2022-12-16T05:58:01.340Z,2.60
2022-12-16T06:00:48.459Z,2.40
2022-12-16T06:03:34.617Z,2.80
2022-12-16T06:06:20.490Z,3.10
2022-12-16T06:09:06.199Z,4.10
2022-12-16T06:11:51.892Z,4.27
2022-12-16T06:14:37.187Z,3.30
2022-12-16T06:17:24.249Z,2.83
2022-12-16T06:20:09.765Z,2.97
2022-12-16T06:22:55.454Z,2.63
2022-12-16T06:25:41.002Z,2.17
2022-12-16T06:28:26.849Z,2.30
2022-12-16T06:31:12.606Z,2.53
2022-12-16T06:33:59.729Z,5.37
2022-12-16T06:36:45.094Z,5.40
2022-12-16T06:39:30.919Z,5.80
2022-12-16T06:42:16.562Z,5.10
2022-12-16T06:45:02.091Z,5.60
2022-12-16T06:47:47.674Z,4.13
2022-12-16T06:50:34.975Z,3.63
2022-12-16T06:53:20.491Z,3.40
2022-12-16T06:56:06.517Z,2.53
2022-12-16T06:58:52.355Z,2.57
2022-12-16T07:01:38.216Z,3.77
2022-12-16T07:04:24.334Z,2.60
2022-12-16T07:07:11.135Z,1.97
2022-12-16T07:09:57.250Z,2.50
2022-12-16T07:12:43.007Z,1.80
2022-12-16T07:15:29.414Z,2.03
2022-12-16T07:18:15.049Z,1.77
2022-12-16T07:21:15.153Z,2.20
2022-12-16T07:24:02.124Z,2.73
2022-12-16T07:26:47.855Z,2.10
2022-12-16T07:29:33.433Z,2.37
2022-12-16T07:32:19.100Z,2.17
2022-12-16T07:35:04.895Z,2.27
2022-12-16T07:37:50.580Z,2.60
2022-12-16T07:40:37.599Z,2.23
2022-12-16T07:43:23.413Z,2.73
2022-12-16T07:46:08.012Z,4.70
2022-12-16T07:48:57.005Z,4.67
2022-12-16T07:51:42.379Z,4.60
2022-12-16T07:54:27.935Z,3.37
2022-12-16T07:57:15.140Z,1.80
2022-12-16T07:59:57.330Z,1.77
2022-12-16T08:02:43.064Z,1.63
2022-12-16T08:05:29.307Z,2.13
2022-12-16T08:08:15.193Z,1.50
2022-12-16T08:11:00.980Z,1.80
2022-12-16T08:13:49.565Z,1.90
2022-12-16T08:16:35.110Z,1.70
2022-12-16T08:19:29.354Z,2.10
2022-12-16T08:22:17.502Z,1.83
2022-12-16T08:25:03.308Z,1.60
2022-12-16T08:28:04.798Z,1.50
2022-12-16T08:30:51.948Z,1.73
2022-12-16T08:33:38.505Z,1.33
2022-12-16T08:36:25.226Z,1.40
2022-12-16T08:39:10.924Z,1.40
2022-12-16T08:41:56.524Z,1.63
2022-12-16T08:44:38.770Z,1.37
2022-12-16T08:47:25.528Z,1.90
2022-12-16T08:50:11.198Z,1.23
2022-12-16T08:52:56.994Z,1.33
2022-12-16T08:55:43.021Z,1.37
2022-12-16T08:58:31.127Z,1.43
2022-12-16T09:01:17.090Z,3.40
2022-12-16T09:04:04.429Z,2.00
2022-12-16T09:06:50.366Z,2.53
2022-12-16T09:09:35.743Z,2.13
2022-12-16T09:12:22.772Z,1.97
2022-12-16T09:15:08.505Z,1.63
2022-12-16T09:17:54.248Z,1.33
2022-12-16T09:20:41.860Z,1.10
2022-12-16T09:23:27.758Z,0.70
2022-12-16T09:26:13.533Z,1.30
2022-12-16T09:28:59.372Z,1.20
2022-12-16T09:31:59.770Z,1.23
2022-12-16T09:34:45.467Z,2.00
2022-12-16T09:37:32.876Z,1.50
2022-12-16T09:40:18.738Z,2.53
2022-12-16T09:43:09.637Z,2.40
2022-12-16T09:46:04.604Z,2.77
2022-12-16T09:49:01.341Z,1.70
2022-12-16T09:51:47.772Z,1.60
2022-12-16T09:54:49.731Z,1.93
2022-12-16T09:57:37.216Z,1.13
2022-12-16T10:00:26.107Z,1.30
2022-12-16T10:03:14.479Z,1.20
2022-12-16T10:06:09.986Z,1.07
2022-12-16T10:09:03.260Z,1.30
2022-12-16T10:12:05.930Z,1.27
2022-12-16T10:14:58.171Z,1.13
2022-12-16T10:17:44.841Z,1.03
2022-12-16T10:20:39.316Z,0.93
2022-12-16T10:23:37.036Z,0.87
2022-12-16T10:26:29.818Z,1.20
2022-12-16T10:29:23.899Z,0.90
2022-12-16T10:32:09.743Z,0.80
2022-12-16T10:35:06.018Z,0.70
2022-12-16T10:37:55.534Z,0.80
2022-12-16T10:40:45.785Z,1.20
2022-12-16T10:43:36.843Z,1.20
2022-12-16T10:46:40.827Z,1.00
2022-12-16T10:49:31.231Z,0.90
2022-12-16T10:52:17.051Z,1.70
2022-12-16T10:55:10.117Z,3.47
2022-12-16T10:58:07.194Z,2.90
2022-12-16T11:00:59.773Z,1.10
2022-12-16T11:03:49.480Z,1.90
2022-12-16T11:06:39.313Z,1.00
2022-12-16T11:09:41.848Z,1.30
2022-12-16T11:12:44.005Z,1.60
2022-12-16T11:15:43.770Z,1.00
2022-12-16T11:18:31.908Z,1.87
2022-12-16T11:21:33.041Z,2.30
2022-12-16T11:24:25.887Z,1.77
2022-12-16T11:27:12.591Z,2.13
2022-12-16T11:30:12.552Z,1.53
2022-12-16T11:33:02.084Z,1.43
2022-12-16T11:35:53.350Z,2.07
2022-12-16T11:38:44.738Z,1.30
2022-12-16T11:41:41.493Z,1.20
2022-12-16T11:44:36.803Z,1.60
2022-12-16T11:47:27.657Z,0.93
2022-12-16T11:50:15.937Z,0.90
2022-12-16T11:53:08.653Z,1.00
2022-12-16T11:56:12.321Z,0.90
2022-12-16T11:59:05.043Z,0.90
2022-12-16T12:01:57.452Z,1.10
2022-12-16T12:04:43.235Z,1.10
2022-12-16T12:07:44.930Z,0.90
2022-12-16T12:10:49.412Z,1.07
2022-12-16T12:13:51.526Z,1.33
2022-12-16T12:16:50.021Z,1.10
2022-12-16T12:19:44.032Z,0.90
2022-12-16T12:22:34.094Z,0.70
2022-12-16T12:25:27.612Z,0.50
2022-12-16T12:28:20.622Z,0.70
2022-12-16T12:31:13.168Z,0.60
2022-12-16T12:34:22.132Z,0.70
2022-12-16T12:37:18.283Z,1.90
2022-12-16T12:40:05.765Z,0.80
2022-12-16T12:43:03.368Z,0.80
2022-12-16T12:46:06.927Z,0.53
2022-12-16T12:49:01.028Z,0.53
2022-12-16T12:51:53.803Z,0.63
2022-12-16T12:54:47.192Z,0.57
2022-12-16T12:57:36.800Z,0.60
2022-12-16T13:00:25.697Z,1.03
2022-12-16T13:03:20.661Z,0.60
2022-12-16T13:06:09.437Z,0.60
2022-12-16T13:09:04.944Z,0.60
2022-12-16T13:11:50.695Z,0.77
2022-12-16T13:15:11.672Z,0.63
2022-12-16T13:18:36.904Z,0.80
2022-12-16T13:22:02.771Z,0.70
2022-12-16T13:25:09.823Z,0.60
2022-12-16T13:28:09.076Z,0.70
2022-12-16T13:30:55.556Z,0.57
2022-12-16T13:34:05.324Z,0.53
2022-12-16T13:36:54.363Z,1.03
2022-12-16T13:39:43.828Z,0.67
2022-12-16T13:43:06.248Z,0.50
2022-12-16T13:45:55.193Z,0.77
2022-12-16T13:48:57.222Z,1.00
2022-12-16T13:52:25.451Z,0.70
2022-12-16T13:55:30.245Z,0.50
2022-12-16T13:58:23.583Z,0.90
2022-12-16T14:01:24.161Z,0.70
2022-12-16T14:04:11.457Z,0.80
2022-12-16T14:06:58.665Z,0.60
2022-12-16T14:09:52.059Z,0.60
2022-12-16T14:12:59.477Z,0.70
2022-12-16T14:15:50.927Z,0.70
2022-12-16T14:18:47.481Z,0.80
2022-12-16T14:21:43.845Z,0.77
2022-12-16T14:24:36.782Z,0.80
2022-12-16T14:27:30.898Z,0.80
2022-12-16T14:30:18.089Z,0.80
2022-12-16T14:33:04.158Z,0.97
2022-12-16T14:35:50.466Z,0.97
2022-12-16T14:38:42.701Z,0.60
2022-12-16T14:41:33.620Z,1.00
2022-12-16T14:44:20.132Z,1.87
2022-12-16T14:47:15.637Z,1.70
2022-12-16T14:50:08.814Z,1.50
2022-12-16T14:52:54.615Z,1.53
2022-12-16T14:55:47.756Z,2.57
2022-12-16T14:58:34.544Z,2.30
2022-12-16T15:01:23.990Z,2.27
2022-12-16T15:04:12.392Z,2.57
2022-12-16T15:07:01.672Z,2.80
2022-12-16T15:09:51.018Z,4.67
2022-12-16T15:12:39.740Z,2.20
2022-12-16T15:15:32.553Z,2.23
2022-12-16T15:18:20.310Z,2.07
2022-12-16T15:21:25.143Z,2.33
2022-12-16T15:24:11.125Z,2.63
2022-12-16T15:26:56.925Z,2.70
2022-12-16T15:29:47.215Z,2.30
2022-12-16T15:32:50.535Z,3.87
2022-12-16T15:35:44.700Z,4.70
2022-12-16T15:38:42.350Z,4.97
2022-12-16T15:41:40.067Z,8.90
2022-12-16T15:44:34.223Z,8.30
2022-12-16T15:47:20.238Z,7.47
2022-12-16T15:50:07.130Z,3.67
2022-12-16T15:52:55.048Z,2.93
2022-12-16T15:55:48.950Z,3.17
2022-12-16T15:58:40.605Z,5.63
2022-12-16T16:01:27.531Z,4.20
2022-12-16T16:04:14.966Z,3.20
2022-12-16T16:07:04.219Z,3.47
2022-12-16T16:09:51.063Z,3.43
2022-12-16T16:12:40.036Z,2.93
2022-12-16T16:15:28.717Z,2.97
2022-12-16T16:18:30.685Z,2.40
2022-12-16T16:21:16.318Z,3.17
2022-12-16T16:24:02.198Z,2.83
2022-12-16T16:27:02.431Z,3.03
2022-12-16T16:30:01.177Z,2.90
2022-12-16T16:32:47.095Z,2.40
2022-12-16T16:35:33.256Z,2.70
2022-12-16T16:38:18.930Z,3.00
2022-12-16T16:41:06.115Z,2.60
2022-12-16T16:43:52.048Z,2.83
2022-12-16T16:46:51.469Z,3.10
2022-12-16T16:49:42.392Z,2.43
2022-12-16T16:52:30.901Z,3.10
2022-12-16T16:55:17.059Z,2.47
2022-12-16T16:58:02.989Z,3.33
2022-12-16T17:00:49.571Z,4.03
2022-12-16T17:03:37.675Z,3.57
2022-12-16T17:06:23.997Z,2.87
2022-12-16T17:09:09.708Z,2.93
2022-12-16T17:11:57.165Z,2.30
2022-12-16T17:14:42.918Z,2.70
2022-12-16T17:17:29.374Z,2.87
2022-12-16T17:20:24.844Z,3.00
2022-12-16T17:23:10.583Z,3.13
2022-12-16T17:25:56.308Z,5.57
2022-12-16T17:28:42.283Z,5.00
2022-12-16T17:31:29.414Z,6.80
2022-12-16T17:34:15.126Z,9.63
2022-12-16T17:37:02.382Z,6.07
2022-12-16T17:39:48.315Z,5.50
2022-12-16T17:42:48.735Z,4.33
2022-12-16T17:45:34.807Z,2.97
2022-12-16T17:48:20.497Z,3.07
2022-12-16T17:51:06.228Z,2.67
2022-12-16T17:54:00.139Z,3.07
2022-12-16T17:56:46.872Z,2.97
2022-12-16T17:59:32.660Z,3.10
2022-12-16T18:02:18.710Z,3.77
2022-12-16T18:05:04.509Z,3.20
2022-12-16T18:07:50.949Z,3.50
2022-12-16T18:10:37.935Z,3.60
2022-12-16T18:13:26.246Z,4.07
2022-12-16T18:16:12.603Z,4.23
2022-12-16T18:18:58.571Z,3.70
2022-12-16T18:21:44.438Z,4.03
2022-12-16T18:24:31.460Z,4.50
2022-12-16T18:27:19.677Z,2.80
2022-12-16T18:30:05.441Z,4.70
2022-12-16T18:33:02.492Z,2.73
2022-12-16T18:35:47.976Z,2.47
2022-12-16T18:38:33.497Z,2.83
2022-12-16T18:41:23.046Z,1.90
2022-12-16T18:44:10.581Z,2.20
2022-12-16T18:46:56.994Z,2.03
2022-12-16T18:49:42.899Z,1.60
2022-12-16T18:52:28.440Z,2.00
2022-12-16T18:55:14.323Z,1.80
2022-12-16T18:58:00.266Z,1.60
2022-12-16T19:00:47.336Z,1.73
2022-12-16T19:03:33.454Z,2.13
2022-12-16T19:06:19.025Z,3.80
2022-12-16T19:09:04.896Z,5.83
2022-12-16T19:11:50.589Z,9.07
2022-12-16T19:14:36.677Z,3.20
2022-12-16T19:17:24.141Z,1.80
2022-12-16T19:20:10.131Z,1.90
2022-12-16T19:22:56.158Z,1.60
2022-12-16T19:25:41.760Z,1.70
2022-12-16T19:28:31.707Z,1.67
2022-12-16T19:31:17.815Z,1.63
2022-12-16T19:34:04.965Z,1.30
2022-12-16T19:36:50.934Z,1.07
2022-12-16T19:39:34.194Z,1.10
2022-12-16T19:42:19.927Z,0.87
2022-12-16T19:45:05.617Z,1.00
2022-12-16T19:47:53.749Z,1.10
2022-12-16T19:50:40.895Z,1.00
2022-12-16T19:53:26.873Z,1.00
2022-12-16T19:56:16.314Z,1.20
2022-12-16T19:59:02.271Z,1.20
2022-12-16T20:01:48.276Z,1.10
2022-12-16T20:04:34.349Z,1.60
2022-12-16T20:10:27.790Z,1.02
2022-12-16T20:13:18.545Z,1.00
2022-12-16T20:16:09.105Z,0.90
2022-12-16T20:18:55.035Z,1.30
2022-12-16T20:21:42.285Z,0.97
2022-12-16T20:24:30.258Z,1.00
2022-12-16T20:27:15.762Z,1.10
2022-12-16T20:30:01.279Z,1.20
2022-12-16T20:32:47.430Z,1.13
2022-12-16T20:35:33.924Z,1.00
2022-12-16T20:38:19.800Z,0.90
2022-12-16T20:41:14.824Z,1.10
2022-12-16T20:44:00.646Z,0.80
2022-12-16T20:46:47.009Z,0.97
2022-12-16T20:49:32.845Z,1.50
2022-12-16T20:52:18.858Z,0.90
2022-12-16T20:55:04.766Z,2.63
2022-12-16T20:57:51.682Z,2.27
2022-12-16T21:00:37.680Z,1.37
2022-12-16T21:03:25.681Z,0.90
2022-12-16T21:06:11.396Z,0.93
2022-12-16T21:08:57.524Z,0.90
2022-12-16T21:11:43.394Z,1.30
2022-12-16T21:14:30.307Z,0.77
2022-12-16T21:17:16.360Z,0.90
2022-12-16T21:20:01.737Z,0.80
2022-12-16T21:22:47.202Z,0.97
2022-12-16T21:25:33.001Z,0.83
2022-12-16T21:28:18.936Z,1.20
2022-12-16T21:31:05.933Z,1.10
2022-12-16T21:33:51.932Z,1.10
2022-12-16T21:36:37.789Z,1.40
2022-12-16T21:39:23.733Z,1.50
2022-12-16T21:42:09.320Z,1.20
2022-12-16T21:44:54.872Z,1.47
2022-12-16T21:47:43.460Z,1.37
2022-12-16T21:50:30.303Z,1.50
2022-12-16T21:53:15.412Z,1.50
2022-12-16T21:56:01.305Z,1.40
2022-12-16T21:58:47.091Z,2.20
2022-12-16T22:01:32.903Z,1.27
2022-12-16T22:04:28.694Z,1.70
2022-12-16T22:07:14.729Z,1.70
2022-12-16T22:10:00.622Z,2.47
2022-12-16T22:12:46.123Z,2.10
2022-12-16T22:15:31.882Z,1.80
2022-12-16T22:18:18.614Z,1.80
2022-12-16T22:21:17.300Z,1.60
2022-12-16T22:24:02.997Z,2.23
2022-12-16T22:26:48.781Z,1.60
2022-12-16T22:29:34.848Z,1.27
2022-12-16T22:32:20.502Z,1.73
2022-12-16T22:35:06.233Z,1.43
2022-12-16T22:36:20.687Z,1.30
2022-12-16T22:37:52.992Z,1.47
2022-12-16T22:40:41.821Z,1.70
2022-12-16T22:43:27.840Z,1.57
2022-12-16T22:46:17.833Z,1.67
2022-12-16T22:49:04.599Z,1.30
2022-12-16T22:51:50.413Z,1.77
2022-12-16T22:54:37.579Z,1.30
2022-12-16T22:57:22.922Z,1.30
2022-12-16T23:00:09.160Z,1.13
2022-12-16T23:02:55.549Z,1.00
2022-12-16T23:05:42.451Z,1.27
2022-12-16T23:08:28.616Z,1.07
2022-12-16T23:11:16.733Z,1.33
2022-12-16T23:14:03.726Z,1.30
2022-12-16T23:16:49.362Z,1.20
2022-12-16T23:19:35.056Z,1.70
2022-12-16T23:22:20.706Z,1.83
2022-12-16T23:25:06.286Z,0.97
2022-12-16T23:27:53.162Z,1.77
2022-12-16T23:30:39.101Z,1.43
2022-12-16T23:33:25.007Z,1.40
2022-12-16T23:36:10.677Z,1.40
2022-12-16T23:38:56.762Z,1.73
2022-12-16T23:41:42.451Z,2.13
2022-12-16T23:44:29.477Z,1.70
2022-12-16T23:47:15.234Z,1.47
2022-12-16T23:50:00.635Z,1.30
2022-12-16T23:52:46.188Z,1.60
2022-12-16T23:55:32.083Z,1.30
2022-12-16T23:58:18.372Z,1.30
